sensor_id;sensor_type;location;lat;lon;timestamp;pressure;altitude;pressure_sealevel;temperature;humidity
54870;BME280;40756;-37.950;145.008;2023-04-07T00:00:09;99690.24;;;20.60;49.53
54870;BME280;40756;-37.950;145.008;2023-04-07T00:02:38;99681.95;;;20.84;49.55
54870;BME280;40756;-37.950;145.008;2023-04-07T00:05:08;99678.85;;;20.92;46.35
54870;BME280;40756;-37.950;145.008;2023-04-07T00:07:44;99673.36;;;20.77;46.50
54870;BME280;40756;-37.950;145.008;2023-04-07T00:10:14;99671.98;;;20.62;46.57
54870;BME280;40756;-37.950;145.008;2023-04-07T00:12:43;99665.92;;;21.05;46.75
54870;BME280;40756;-37.950;145.008;2023-04-07T00:15:13;99664.85;;;21.10;47.69
54870;BME280;40756;-37.950;145.008;2023-04-07T00:17:42;99669.84;;;20.88;49.28
54870;BME280;40756;-37.950;145.008;2023-04-07T00:20:12;99670.88;;;21.06;46.67
54870;BME280;40756;-37.950;145.008;2023-04-07T00:22:42;99674.87;;;21.22;48.09
54870;BME280;40756;-37.950;145.008;2023-04-07T00:25:11;99675.41;;;20.64;48.92
54870;BME280;40756;-37.950;145.008;2023-04-07T00:27:41;99672.79;;;20.83;46.26
54870;BME280;40756;-37.950;145.008;2023-04-07T00:30:11;99671.73;;;21.19;45.65
54870;BME280;40756;-37.950;145.008;2023-04-07T00:32:40;99673.63;;;20.65;45.17
54870;BME280;40756;-37.950;145.008;2023-04-07T00:35:10;99670.15;;;21.35;47.61
54870;BME280;40756;-37.950;145.008;2023-04-07T00:37:40;99668.34;;;21.59;45.35
54870;BME280;40756;-37.950;145.008;2023-04-07T00:40:10;99663.78;;;21.35;44.00
54870;BME280;40756;-37.950;145.008;2023-04-07T00:42:39;99663.29;;;21.09;44.88
54870;BME280;40756;-37.950;145.008;2023-04-07T00:45:10;99659.81;;;21.15;46.74
54870;BME280;40756;-37.950;145.008;2023-04-07T00:47:39;99659.02;;;21.23;44.34
54870;BME280;40756;-37.950;145.008;2023-04-07T00:50:09;99657.23;;;20.88;45.83
54870;BME280;40756;-37.950;145.008;2023-04-07T00:52:40;99655.16;;;21.43;45.71
54870;BME280;40756;-37.950;145.008;2023-04-07T00:55:10;99649.69;;;21.41;45.54
54870;BME280;40756;-37.950;145.008;2023-04-07T00:57:40;99649.05;;;21.59;46.52
54870;BME280;40756;-37.950;145.008;2023-04-07T01:00:10;99648.39;;;21.38;45.01
54870;BME280;40756;-37.950;145.008;2023-04-07T01:02:44;99649.49;;;21.72;45.52
54870;BME280;40756;-37.950;145.008;2023-04-07T01:05:17;99644.79;;;21.29;44.48
54870;BME280;40756;-37.950;145.008;2023-04-07T01:07:57;99639.63;;;21.80;44.40
54870;BME280;40756;-37.950;145.008;2023-04-07T01:10:36;99636.48;;;21.16;42.73
54870;BME280;40756;-37.950;145.008;2023-04-07T01:13:19;99638.29;;;20.87;43.00
54870;BME280;40756;-37.950;145.008;2023-04-07T01:15:51;99636.27;;;21.31;42.64
54870;BME280;40756;-37.950;145.008;2023-04-07T01:18:26;99633.58;;;21.09;43.94
54870;BME280;40756;-37.950;145.008;2023-04-07T01:21:03;99633.38;;;20.91;43.11
54870;BME280;40756;-37.950;145.008;2023-04-07T01:23:50;99633.70;;;21.23;44.23
54870;BME280;40756;-37.950;145.008;2023-04-07T01:26:24;99623.38;;;20.85;43.97
54870;BME280;40756;-37.950;145.008;2023-04-07T01:29:28;99618.23;;;21.05;43.90
54870;BME280;40756;-37.950;145.008;2023-04-07T01:32:01;99621.87;;;21.25;43.31
54870;BME280;40756;-37.950;145.008;2023-04-07T01:34:32;99622.81;;;21.14;43.18
54870;BME280;40756;-37.950;145.008;2023-04-07T01:37:03;99617.61;;;21.24;43.00
54870;BME280;40756;-37.950;145.008;2023-04-07T01:39:52;99613.72;;;21.28;42.98
54870;BME280;40756;-37.950;145.008;2023-04-07T01:42:22;99604.33;;;21.68;42.72
54870;BME280;40756;-37.950;145.008;2023-04-07T01:44:54;99601.76;;;21.19;43.68
54870;BME280;40756;-37.950;145.008;2023-04-07T01:47:25;99597.78;;;21.77;43.17
54870;BME280;40756;-37.950;145.008;2023-04-07T01:49:55;99596.01;;;21.85;43.60
54870;BME280;40756;-37.950;145.008;2023-04-07T01:52:26;99594.82;;;21.62;43.51
54870;BME280;40756;-37.950;145.008;2023-04-07T01:54:56;99587.93;;;21.83;43.21
54870;BME280;40756;-37.950;145.008;2023-04-07T01:57:26;99582.39;;;21.48;43.63
54870;BME280;40756;-37.950;145.008;2023-04-07T01:59:56;99580.26;;;21.68;41.57
54870;BME280;40756;-37.950;145.008;2023-04-07T02:02:25;99572.20;;;21.80;41.42
54870;BME280;40756;-37.950;145.008;2023-04-07T02:04:56;99575.08;;;20.98;41.67
54870;BME280;40756;-37.950;145.008;2023-04-07T02:07:30;99582.68;;;21.40;41.35
54870;BME280;40756;-37.950;145.008;2023-04-07T02:10:01;99570.68;;;21.84;40.51
54870;BME280;40756;-37.950;145.008;2023-04-07T02:12:33;99567.78;;;21.54;42.59
54870;BME280;40756;-37.950;145.008;2023-04-07T02:15:04;99561.94;;;21.42;41.40
54870;BME280;40756;-37.950;145.008;2023-04-07T02:17:37;99562.85;;;21.82;40.57
54870;BME280;40756;-37.950;145.008;2023-04-07T02:20:08;99564.24;;;22.22;42.06
54870;BME280;40756;-37.950;145.008;2023-04-07T02:22:39;99561.99;;;21.31;40.74
54870;BME280;40756;-37.950;145.008;2023-04-07T02:25:23;99556.79;;;21.67;41.36
54870;BME280;40756;-37.950;145.008;2023-04-07T02:27:54;99551.97;;;22.27;40.80
54870;BME280;40756;-37.950;145.008;2023-04-07T02:30:24;99552.40;;;22.51;40.08
54870;BME280;40756;-37.950;145.008;2023-04-07T02:32:54;99552.06;;;22.26;40.76
54870;BME280;40756;-37.950;145.008;2023-04-07T02:35:23;99550.19;;;22.69;40.06
54870;BME280;40756;-37.950;145.008;2023-04-07T02:37:52;99542.58;;;22.64;39.55
54870;BME280;40756;-37.950;145.008;2023-04-07T02:40:22;99538.54;;;22.72;40.89
54870;BME280;40756;-37.950;145.008;2023-04-07T02:42:51;99529.34;;;22.71;40.24
54870;BME280;40756;-37.950;145.008;2023-04-07T02:45:21;99524.08;;;22.74;40.89
54870;BME280;40756;-37.950;145.008;2023-04-07T02:47:50;99519.93;;;22.16;42.23
54870;BME280;40756;-37.950;145.008;2023-04-07T02:50:20;99525.54;;;21.65;40.37
54870;BME280;40756;-37.950;145.008;2023-04-07T02:52:49;99523.38;;;21.79;40.28
54870;BME280;40756;-37.950;145.008;2023-04-07T02:55:18;99528.04;;;21.98;39.42
54870;BME280;40756;-37.950;145.008;2023-04-07T02:57:48;99528.98;;;22.12;38.96
54870;BME280;40756;-37.950;145.008;2023-04-07T03:00:18;99539.58;;;21.53;38.22
54870;BME280;40756;-37.950;145.008;2023-04-07T03:02:47;99543.12;;;21.41;37.49
54870;BME280;40756;-37.950;145.008;2023-04-07T03:05:16;99537.06;;;21.09;37.48
54870;BME280;40756;-37.950;145.008;2023-04-07T03:07:46;99541.34;;;21.41;38.42
54870;BME280;40756;-37.950;145.008;2023-04-07T03:10:16;99533.53;;;21.22;39.25
54870;BME280;40756;-37.950;145.008;2023-04-07T03:12:45;99533.91;;;20.90;41.02
54870;BME280;40756;-37.950;145.008;2023-04-07T03:15:15;99531.30;;;20.62;43.06
54870;BME280;40756;-37.950;145.008;2023-04-07T03:17:44;99532.98;;;20.76;44.86
54870;BME280;40756;-37.950;145.008;2023-04-07T03:20:14;99530.83;;;20.55;44.67
54870;BME280;40756;-37.950;145.008;2023-04-07T03:22:43;99522.92;;;20.59;45.68
54870;BME280;40756;-37.950;145.008;2023-04-07T03:25:13;99517.91;;;20.23;46.63
54870;BME280;40756;-37.950;145.008;2023-04-07T03:27:43;99514.83;;;19.88;45.85
54870;BME280;40756;-37.950;145.008;2023-04-07T03:30:13;99512.17;;;19.93;46.01
54870;BME280;40756;-37.950;145.008;2023-04-07T03:32:42;99514.92;;;19.77;44.99
54870;BME280;40756;-37.950;145.008;2023-04-07T03:35:12;99508.18;;;20.17;45.89
54870;BME280;40756;-37.950;145.008;2023-04-07T03:37:42;99510.97;;;19.68;46.44
54870;BME280;40756;-37.950;145.008;2023-04-07T03:40:12;99507.54;;;19.98;46.30
54870;BME280;40756;-37.950;145.008;2023-04-07T03:42:42;99504.09;;;19.33;47.36
54870;BME280;40756;-37.950;145.008;2023-04-07T03:45:12;99504.97;;;20.22;45.85
54870;BME280;40756;-37.950;145.008;2023-04-07T03:47:42;99498.70;;;20.33;44.51
54870;BME280;40756;-37.950;145.008;2023-04-07T03:50:12;99497.11;;;20.27;42.40
54870;BME280;40756;-37.950;145.008;2023-04-07T03:52:41;99497.03;;;20.63;43.79
54870;BME280;40756;-37.950;145.008;2023-04-07T03:55:10;99489.91;;;20.17;40.59
54870;BME280;40756;-37.950;145.008;2023-04-07T03:57:40;99476.08;;;20.47;40.97
54870;BME280;40756;-37.950;145.008;2023-04-07T04:00:11;99470.67;;;20.52;38.45
54870;BME280;40756;-37.950;145.008;2023-04-07T04:02:40;99469.05;;;20.80;39.83
54870;BME280;40756;-37.950;145.008;2023-04-07T04:05:10;99473.89;;;20.83;38.64
54870;BME280;40756;-37.950;145.008;2023-04-07T04:07:40;99478.44;;;21.14;38.34
54870;BME280;40756;-37.950;145.008;2023-04-07T04:10:47;99472.60;;;21.34;37.93
54870;BME280;40756;-37.950;145.008;2023-04-07T04:13:24;99483.44;;;20.00;37.80
54870;BME280;40756;-37.950;145.008;2023-04-07T04:15:54;99482.42;;;20.75;36.51
54870;BME280;40756;-37.950;145.008;2023-04-07T04:18:23;99494.88;;;20.32;36.48
54870;BME280;40756;-37.950;145.008;2023-04-07T04:20:53;99495.67;;;20.25;37.66
54870;BME280;40756;-37.950;145.008;2023-04-07T04:23:22;99498.74;;;20.82;37.48
54870;BME280;40756;-37.950;145.008;2023-04-07T04:25:52;99498.56;;;20.30;37.87
54870;BME280;40756;-37.950;145.008;2023-04-07T04:28:22;99493.68;;;20.75;38.40
54870;BME280;40756;-37.950;145.008;2023-04-07T04:30:51;99490.47;;;21.25;37.94
54870;BME280;40756;-37.950;145.008;2023-04-07T04:33:21;99487.01;;;21.54;36.75
54870;BME280;40756;-37.950;145.008;2023-04-07T04:35:50;99490.72;;;21.86;37.02
54870;BME280;40756;-37.950;145.008;2023-04-07T04:38:20;99490.43;;;21.88;37.41
54870;BME280;40756;-37.950;145.008;2023-04-07T04:40:50;99488.38;;;21.26;39.15
54870;BME280;40756;-37.950;145.008;2023-04-07T04:43:20;99488.32;;;21.51;37.66
54870;BME280;40756;-37.950;145.008;2023-04-07T04:45:49;99481.79;;;21.44;36.40
54870;BME280;40756;-37.950;145.008;2023-04-07T04:48:18;99480.20;;;21.80;36.83
54870;BME280;40756;-37.950;145.008;2023-04-07T04:50:48;99480.95;;;21.63;37.29
54870;BME280;40756;-37.950;145.008;2023-04-07T04:53:17;99471.45;;;20.82;36.54
54870;BME280;40756;-37.950;145.008;2023-04-07T04:55:46;99474.61;;;20.82;36.88
54870;BME280;40756;-37.950;145.008;2023-04-07T04:58:15;99472.09;;;20.65;36.19
54870;BME280;40756;-37.950;145.008;2023-04-07T05:00:44;99469.57;;;21.04;36.21
54870;BME280;40756;-37.950;145.008;2023-04-07T05:03:14;99470.55;;;21.07;36.77
54870;BME280;40756;-37.950;145.008;2023-04-07T05:05:46;99468.92;;;20.58;36.67
54870;BME280;40756;-37.950;145.008;2023-04-07T05:08:15;99469.31;;;20.35;37.54
54870;BME280;40756;-37.950;145.008;2023-04-07T05:10:46;99466.48;;;20.69;38.70
54870;BME280;40756;-37.950;145.008;2023-04-07T05:13:16;99474.09;;;20.53;39.35
54870;BME280;40756;-37.950;145.008;2023-04-07T05:15:46;99467.52;;;20.79;39.58
54870;BME280;40756;-37.950;145.008;2023-04-07T05:18:16;99466.12;;;20.28;37.99
54870;BME280;40756;-37.950;145.008;2023-04-07T05:20:47;99462.56;;;20.77;37.32
54870;BME280;40756;-37.950;145.008;2023-04-07T05:23:17;99457.07;;;21.11;37.80
54870;BME280;40756;-37.950;145.008;2023-04-07T05:25:46;99450.24;;;21.00;35.60
54870;BME280;40756;-37.950;145.008;2023-04-07T05:28:16;99459.22;;;21.32;36.46
54870;BME280;40756;-37.950;145.008;2023-04-07T05:30:46;99459.41;;;20.98;36.06
54870;BME280;40756;-37.950;145.008;2023-04-07T05:33:16;99460.12;;;21.65;37.23
54870;BME280;40756;-37.950;145.008;2023-04-07T05:35:46;99458.86;;;21.25;36.27
54870;BME280;40756;-37.950;145.008;2023-04-07T05:38:15;99455.61;;;21.95;34.55
54870;BME280;40756;-37.950;145.008;2023-04-07T05:40:45;99449.89;;;22.30;35.87
54870;BME280;40756;-37.950;145.008;2023-04-07T05:43:14;99450.61;;;22.52;34.07
54870;BME280;40756;-37.950;145.008;2023-04-07T05:45:43;99444.92;;;22.68;34.06
54870;BME280;40756;-37.950;145.008;2023-04-07T05:48:13;99453.10;;;22.46;33.38
54870;BME280;40756;-37.950;145.008;2023-04-07T05:50:42;99452.54;;;22.47;33.81
54870;BME280;40756;-37.950;145.008;2023-04-07T05:53:12;99454.58;;;22.14;33.74
54870;BME280;40756;-37.950;145.008;2023-04-07T05:55:43;99454.42;;;22.21;35.29
54870;BME280;40756;-37.950;145.008;2023-04-07T05:58:12;99459.97;;;21.45;36.54
54870;BME280;40756;-37.950;145.008;2023-04-07T06:00:42;99458.16;;;20.77;35.82
54870;BME280;40756;-37.950;145.008;2023-04-07T06:03:11;99460.45;;;21.17;35.54
54870;BME280;40756;-37.950;145.008;2023-04-07T06:05:41;99459.06;;;21.42;36.02
54870;BME280;40756;-37.950;145.008;2023-04-07T06:08:10;99460.74;;;21.50;36.48
54870;BME280;40756;-37.950;145.008;2023-04-07T06:10:39;99459.90;;;21.53;36.14
54870;BME280;40756;-37.950;145.008;2023-04-07T06:13:10;99463.66;;;20.96;36.20
54870;BME280;40756;-37.950;145.008;2023-04-07T06:15:39;99463.56;;;20.52;37.19
54870;BME280;40756;-37.950;145.008;2023-04-07T06:18:09;99463.72;;;21.11;36.82
54870;BME280;40756;-37.950;145.008;2023-04-07T06:20:39;99464.64;;;20.89;36.09
54870;BME280;40756;-37.950;145.008;2023-04-07T06:23:08;99466.96;;;20.56;36.47
54870;BME280;40756;-37.950;145.008;2023-04-07T06:25:38;99468.29;;;20.39;36.64
54870;BME280;40756;-37.950;145.008;2023-04-07T06:28:07;99470.52;;;20.84;35.87
54870;BME280;40756;-37.950;145.008;2023-04-07T06:30:37;99473.42;;;20.92;37.83
54870;BME280;40756;-37.950;145.008;2023-04-07T06:33:06;99478.05;;;21.28;37.93
54870;BME280;40756;-37.950;145.008;2023-04-07T06:35:38;99480.75;;;20.82;38.74
54870;BME280;40756;-37.950;145.008;2023-04-07T06:38:08;99485.46;;;20.81;37.73
54870;BME280;40756;-37.950;145.008;2023-04-07T06:40:37;99487.55;;;20.96;36.65
54870;BME280;40756;-37.950;145.008;2023-04-07T06:43:06;99488.54;;;21.18;36.06
54870;BME280;40756;-37.950;145.008;2023-04-07T06:45:36;99494.65;;;20.95;37.54
54870;BME280;40756;-37.950;145.008;2023-04-07T06:48:06;99496.63;;;20.80;38.75
54870;BME280;40756;-37.950;145.008;2023-04-07T06:50:36;99501.53;;;21.15;36.13
54870;BME280;40756;-37.950;145.008;2023-04-07T06:53:05;99505.05;;;20.50;36.90
54870;BME280;40756;-37.950;145.008;2023-04-07T06:55:35;99509.52;;;20.97;36.43
54870;BME280;40756;-37.950;145.008;2023-04-07T06:58:05;99514.17;;;20.59;36.69
54870;BME280;40756;-37.950;145.008;2023-04-07T07:00:34;99515.98;;;20.81;36.48
54870;BME280;40756;-37.950;145.008;2023-04-07T07:03:03;99524.03;;;20.54;36.73
54870;BME280;40756;-37.950;145.008;2023-04-07T07:05:33;99528.68;;;20.21;37.10
54870;BME280;40756;-37.950;145.008;2023-04-07T07:08:02;99536.61;;;20.13;37.36
54870;BME280;40756;-37.950;145.008;2023-04-07T07:10:32;99534.88;;;20.32;37.57
54870;BME280;40756;-37.950;145.008;2023-04-07T07:13:01;99540.17;;;20.50;37.69
54870;BME280;40756;-37.950;145.008;2023-04-07T07:15:32;99542.20;;;19.82;39.99
54870;BME280;40756;-37.950;145.008;2023-04-07T07:18:01;99547.32;;;19.92;38.53
54870;BME280;40756;-37.950;145.008;2023-04-07T07:20:31;99544.13;;;19.97;37.42
54870;BME280;40756;-37.950;145.008;2023-04-07T07:23:01;99547.76;;;19.76;38.06
54870;BME280;40756;-37.950;145.008;2023-04-07T07:25:31;99548.66;;;19.87;38.72
54870;BME280;40756;-37.950;145.008;2023-04-07T07:28:00;99552.34;;;20.03;38.86
54870;BME280;40756;-37.950;145.008;2023-04-07T07:30:30;99554.03;;;19.60;38.71
54870;BME280;40756;-37.950;145.008;2023-04-07T07:32:59;99558.21;;;20.01;38.34
54870;BME280;40756;-37.950;145.008;2023-04-07T07:35:29;99560.33;;;19.47;38.87
54870;BME280;40756;-37.950;145.008;2023-04-07T07:37:58;99565.84;;;19.60;39.23
54870;BME280;40756;-37.950;145.008;2023-04-07T07:40:28;99567.80;;;19.95;38.69
54870;BME280;40756;-37.950;145.008;2023-04-07T07:42:58;99567.02;;;19.86;39.52
54870;BME280;40756;-37.950;145.008;2023-04-07T07:45:28;99569.99;;;19.87;38.96
54870;BME280;40756;-37.950;145.008;2023-04-07T07:47:57;99567.44;;;19.73;38.06
54870;BME280;40756;-37.950;145.008;2023-04-07T07:50:27;99570.56;;;20.04;37.79
54870;BME280;40756;-37.950;145.008;2023-04-07T07:52:56;99572.26;;;19.78;38.59
54870;BME280;40756;-37.950;145.008;2023-04-07T07:55:26;99571.93;;;19.84;38.85
54870;BME280;40756;-37.950;145.008;2023-04-07T07:57:55;99575.06;;;19.88;39.03
54870;BME280;40756;-37.950;145.008;2023-04-07T08:00:25;99577.41;;;19.59;39.24
54870;BME280;40756;-37.950;145.008;2023-04-07T08:02:54;99580.23;;;19.58;39.72
54870;BME280;40756;-37.950;145.008;2023-04-07T08:05:24;99583.00;;;19.27;40.38
54870;BME280;40756;-37.950;145.008;2023-04-07T08:07:53;99580.47;;;19.11;39.82
54870;BME280;40756;-37.950;145.008;2023-04-07T08:10:23;99581.03;;;19.41;39.47
54870;BME280;40756;-37.950;145.008;2023-04-07T08:12:54;99584.68;;;18.83;40.56
54870;BME280;40756;-37.950;145.008;2023-04-07T08:15:24;99588.59;;;19.37;39.94
54870;BME280;40756;-37.950;145.008;2023-04-07T08:17:54;99592.90;;;19.32;39.94
54870;BME280;40756;-37.950;145.008;2023-04-07T08:20:25;99599.68;;;18.99;39.80
54870;BME280;40756;-37.950;145.008;2023-04-07T08:22:55;99602.28;;;19.31;40.19
54870;BME280;40756;-37.950;145.008;2023-04-07T08:25:25;99602.19;;;19.26;40.10
54870;BME280;40756;-37.950;145.008;2023-04-07T08:27:54;99602.47;;;19.41;40.11
54870;BME280;40756;-37.950;145.008;2023-04-07T08:30:24;99607.38;;;19.34;40.61
54870;BME280;40756;-37.950;145.008;2023-04-07T08:32:53;99606.48;;;19.21;41.03
54870;BME280;40756;-37.950;145.008;2023-04-07T08:35:23;99606.20;;;19.03;41.38
54870;BME280;40756;-37.950;145.008;2023-04-07T08:37:52;99607.44;;;18.95;41.51
54870;BME280;40756;-37.950;145.008;2023-04-07T08:40:22;99608.19;;;18.76;41.83
54870;BME280;40756;-37.950;145.008;2023-04-07T08:42:52;99609.82;;;18.93;42.01
54870;BME280;40756;-37.950;145.008;2023-04-07T08:45:21;99604.79;;;19.16;42.07
54870;BME280;40756;-37.950;145.008;2023-04-07T08:47:55;99608.61;;;19.01;42.36
54870;BME280;40756;-37.950;145.008;2023-04-07T08:50:27;99610.90;;;19.02;42.43
54870;BME280;40756;-37.950;145.008;2023-04-07T08:52:57;99612.53;;;18.59;42.93
54870;BME280;40756;-37.950;145.008;2023-04-07T08:55:29;99615.73;;;18.79;43.05
54870;BME280;40756;-37.950;145.008;2023-04-07T08:57:58;99615.11;;;18.32;42.95
54870;BME280;40756;-37.950;145.008;2023-04-07T09:00:28;99616.79;;;18.81;43.41
54870;BME280;40756;-37.950;145.008;2023-04-07T09:03:00;99620.15;;;18.88;43.15
54870;BME280;40756;-37.950;145.008;2023-04-07T09:05:30;99621.54;;;18.61;43.10
54870;BME280;40756;-37.950;145.008;2023-04-07T09:08:00;99628.42;;;18.65;43.25
54870;BME280;40756;-37.950;145.008;2023-04-07T09:10:31;99636.91;;;18.43;43.11
54870;BME280;40756;-37.950;145.008;2023-04-07T09:13:00;99645.37;;;18.64;43.04
54870;BME280;40756;-37.950;145.008;2023-04-07T09:15:31;99651.47;;;18.78;43.75
54870;BME280;40756;-37.950;145.008;2023-04-07T09:18:01;99657.98;;;18.81;43.53
54870;BME280;40756;-37.950;145.008;2023-04-07T09:20:55;99663.50;;;18.67;44.05
54870;BME280;40756;-37.950;145.008;2023-04-07T09:23:34;99667.31;;;18.93;43.84
54870;BME280;40756;-37.950;145.008;2023-04-07T09:26:22;99670.85;;;18.76;43.94
54870;BME280;40756;-37.950;145.008;2023-04-07T09:28:56;99675.41;;;18.55;44.05
54870;BME280;40756;-37.950;145.008;2023-04-07T09:31:45;99685.71;;;18.56;44.39
54870;BME280;40756;-37.950;145.008;2023-04-07T09:34:26;99692.97;;;18.43;44.23
54870;BME280;40756;-37.950;145.008;2023-04-07T09:36:55;99701.42;;;18.53;44.18
54870;BME280;40756;-37.950;145.008;2023-04-07T09:39:25;99705.31;;;18.67;44.62
54870;BME280;40756;-37.950;145.008;2023-04-07T09:41:55;99707.24;;;18.65;44.84
54870;BME280;40756;-37.950;145.008;2023-04-07T09:44:25;99707.83;;;18.62;44.75
54870;BME280;40756;-37.950;145.008;2023-04-07T09:46:55;99711.30;;;18.65;44.31
54870;BME280;40756;-37.950;145.008;2023-04-07T09:49:25;99715.46;;;18.60;44.48
54870;BME280;40756;-37.950;145.008;2023-04-07T09:51:59;99717.44;;;18.10;44.64
54870;BME280;40756;-37.950;145.008;2023-04-07T09:54:37;99716.41;;;18.52;44.65
54870;BME280;40756;-37.950;145.008;2023-04-07T09:57:09;99718.05;;;18.49;44.93
54870;BME280;40756;-37.950;145.008;2023-04-07T09:59:40;99722.06;;;18.29;44.51
54870;BME280;40756;-37.950;145.008;2023-04-07T10:02:09;99724.32;;;18.26;44.83
54870;BME280;40756;-37.950;145.008;2023-04-07T10:04:39;99724.53;;;18.09;44.94
54870;BME280;40756;-37.950;145.008;2023-04-07T10:07:08;99731.35;;;18.42;45.16
54870;BME280;40756;-37.950;145.008;2023-04-07T10:09:38;99735.78;;;18.40;45.10
54870;BME280;40756;-37.950;145.008;2023-04-07T10:12:07;99738.42;;;18.72;45.35
54870;BME280;40756;-37.950;145.008;2023-04-07T10:14:37;99742.20;;;17.80;45.94
54870;BME280;40756;-37.950;145.008;2023-04-07T10:17:07;99747.68;;;18.08;46.08
54870;BME280;40756;-37.950;145.008;2023-04-07T10:19:38;99751.65;;;18.32;46.20
54870;BME280;40756;-37.950;145.008;2023-04-07T10:22:09;99749.12;;;18.05;46.85
54870;BME280;40756;-37.950;145.008;2023-04-07T10:24:53;99747.04;;;18.17;46.88
54870;BME280;40756;-37.950;145.008;2023-04-07T10:27:30;99748.26;;;17.77;47.21
54870;BME280;40756;-37.950;145.008;2023-04-07T10:30:01;99748.36;;;17.83;47.15
54870;BME280;40756;-37.950;145.008;2023-04-07T10:32:32;99752.74;;;18.02;46.62
54870;BME280;40756;-37.950;145.008;2023-04-07T10:35:14;99756.86;;;18.29;46.80
54870;BME280;40756;-37.950;145.008;2023-04-07T10:38:10;99761.23;;;18.26;46.68
54870;BME280;40756;-37.950;145.008;2023-04-07T10:40:41;99760.77;;;17.84;47.10
54870;BME280;40756;-37.950;145.008;2023-04-07T10:43:11;99765.32;;;18.00;47.44
54870;BME280;40756;-37.950;145.008;2023-04-07T10:45:56;99771.34;;;17.70;47.43
54870;BME280;40756;-37.950;145.008;2023-04-07T10:48:27;99774.34;;;17.91;47.65
54870;BME280;40756;-37.950;145.008;2023-04-07T10:51:29;99777.33;;;18.11;47.84
54870;BME280;40756;-37.950;145.008;2023-04-07T10:54:25;99779.86;;;17.99;48.01
54870;BME280;40756;-37.950;145.008;2023-04-07T10:57:26;99776.61;;;17.67;47.90
54870;BME280;40756;-37.950;145.008;2023-04-07T11:00:28;99773.67;;;17.56;47.69
54870;BME280;40756;-37.950;145.008;2023-04-07T11:02:57;99778.46;;;17.41;47.60
54870;BME280;40756;-37.950;145.008;2023-04-07T11:05:38;99780.92;;;17.73;47.35
54870;BME280;40756;-37.950;145.008;2023-04-07T11:08:07;99786.17;;;18.05;47.20
54870;BME280;40756;-37.950;145.008;2023-04-07T11:10:37;99789.04;;;18.05;47.58
54870;BME280;40756;-37.950;145.008;2023-04-07T11:13:07;99789.69;;;17.72;48.00
54870;BME280;40756;-37.950;145.008;2023-04-07T11:15:38;99793.70;;;17.90;48.31
54870;BME280;40756;-37.950;145.008;2023-04-07T11:18:14;99790.10;;;17.47;48.64
54870;BME280;40756;-37.950;145.008;2023-04-07T11:20:47;99784.50;;;17.91;48.77
54870;BME280;40756;-37.950;145.008;2023-04-07T11:23:19;99784.20;;;17.78;48.96
54870;BME280;40756;-37.950;145.008;2023-04-07T11:25:50;99787.02;;;17.54;49.13
54870;BME280;40756;-37.950;145.008;2023-04-07T11:28:20;99789.77;;;17.84;49.11
54870;BME280;40756;-37.950;145.008;2023-04-07T11:30:51;99795.51;;;17.75;49.38
54870;BME280;40756;-37.950;145.008;2023-04-07T11:33:22;99804.19;;;17.69;49.44
54870;BME280;40756;-37.950;145.008;2023-04-07T11:35:55;99809.17;;;17.73;49.67
54870;BME280;40756;-37.950;145.008;2023-04-07T11:38:26;99810.66;;;17.50;49.65
54870;BME280;40756;-37.950;145.008;2023-04-07T11:41:08;99816.41;;;17.74;49.76
54870;BME280;40756;-37.950;145.008;2023-04-07T11:43:38;99819.48;;;17.79;49.65
54870;BME280;40756;-37.950;145.008;2023-04-07T11:46:09;99822.25;;;17.81;49.75
54870;BME280;40756;-37.950;145.008;2023-04-07T11:48:41;99822.51;;;17.85;49.65
54870;BME280;40756;-37.950;145.008;2023-04-07T11:51:17;99819.97;;;17.91;49.55
54870;BME280;40756;-37.950;145.008;2023-04-07T11:53:47;99820.08;;;17.41;49.73
54870;BME280;40756;-37.950;145.008;2023-04-07T11:56:22;99826.06;;;17.95;49.46
54870;BME280;40756;-37.950;145.008;2023-04-07T11:58:53;99827.93;;;17.97;49.60
54870;BME280;40756;-37.950;145.008;2023-04-07T12:01:23;99830.83;;;17.71;49.70
54870;BME280;40756;-37.950;145.008;2023-04-07T12:04:10;99829.99;;;17.87;49.53
54870;BME280;40756;-37.950;145.008;2023-04-07T12:06:40;99831.09;;;17.74;49.57
54870;BME280;40756;-37.950;145.008;2023-04-07T12:09:26;99835.13;;;17.72;49.38
54870;BME280;40756;-37.950;145.008;2023-04-07T12:11:56;99838.77;;;17.80;49.71
54870;BME280;40756;-37.950;145.008;2023-04-07T12:14:27;99841.59;;;17.57;50.12
54870;BME280;40756;-37.950;145.008;2023-04-07T12:16:56;99839.95;;;17.51;50.21
54870;BME280;40756;-37.950;145.008;2023-04-07T12:19:27;99840.26;;;17.38;50.13
54870;BME280;40756;-37.950;145.008;2023-04-07T12:21:58;99843.03;;;17.33;50.34
54870;BME280;40756;-37.950;145.008;2023-04-07T12:24:28;99845.18;;;17.42;50.61
54870;BME280;40756;-37.950;145.008;2023-04-07T12:26:58;99850.67;;;17.48;50.71
54870;BME280;40756;-37.950;145.008;2023-04-07T12:29:28;99849.91;;;17.52;50.53
54870;BME280;40756;-37.950;145.008;2023-04-07T12:31:57;99849.60;;;17.56;50.38
54870;BME280;40756;-37.950;145.008;2023-04-07T12:34:27;99844.38;;;17.56;50.42
54870;BME280;40756;-37.950;145.008;2023-04-07T12:36:56;99847.22;;;17.39;50.70
54870;BME280;40756;-37.950;145.008;2023-04-07T12:39:26;99846.38;;;17.33;50.96
54870;BME280;40756;-37.950;145.008;2023-04-07T12:41:56;99846.02;;;17.38;50.92
54870;BME280;40756;-37.950;145.008;2023-04-07T12:44:25;99843.30;;;17.17;51.56
54870;BME280;40756;-37.950;145.008;2023-04-07T12:46:55;99846.76;;;17.72;50.73
54870;BME280;40756;-37.950;145.008;2023-04-07T12:49:24;99848.50;;;17.79;50.91
54870;BME280;40756;-37.950;145.008;2023-04-07T12:51:55;99852.64;;;16.95;54.66